Time;durP1;ratioP1;P1;durP2;ratioP2;P2;SDS_P1;SDS_P2;PMS_P1;PMS_P2;Temp;Humidity;BMP_temperature;BMP_pressure;BME280_temperature;BME280_humidity;BME280_pressure;Samples;Min_cycle;Max_cycle;Signal;HPM_P1;HPM_P2
2021/07/07 00:00:15;;;;;;;1.90;1.70;;;17.80;99.90;;;;;;6220548;23;20513;-88
2021/07/07 00:02:43;;;;;;;1.85;1.70;;;17.90;99.90;;;;;;6246517;22;20692;-89
2021/07/07 00:05:14;;;;;;;2.25;1.88;;;17.90;99.90;;;;;;6220229;23;20177;-89
2021/07/07 00:07:42;;;;;;;2.85;1.80;;;17.80;99.90;;;;;;6194560;23;20201;-89
2021/07/07 00:10:13;;;;;;;2.88;1.70;;;17.80;99.90;;;;;;6246367;23;20260;-89
2021/07/07 00:12:40;;;;;;;1.67;1.42;;;17.80;99.90;;;;;;6245459;22;20268;-89
2021/07/07 00:15:11;;;;;;;2.55;1.55;;;17.80;99.90;;;;;;6246181;23;20256;-89
2021/07/07 00:17:40;;;;;;;2.85;1.77;;;17.90;99.90;;;;;;6245741;22;20268;-89
2021/07/07 00:20:09;;;;;;;2.67;1.50;;;17.80;99.90;;;;;;6245650;23;20181;-89
2021/07/07 00:22:39;;;;;;;2.03;1.63;;;17.80;99.90;;;;;;6218798;23;20216;-89
2021/07/07 00:25:08;;;;;;;1.70;1.60;;;17.80;99.90;;;;;;6219335;23;20174;-89
2021/07/07 00:27:35;;;;;;;2.22;1.58;;;17.80;99.90;;;;;;6245856;22;20231;-88
2021/07/07 00:30:04;;;;;;;5.60;1.63;;;17.80;99.90;;;;;;6246370;23;20252;-89
2021/07/07 00:32:31;;;;;;;1.70;1.60;;;17.70;99.90;;;;;;6218247;23;20213;-90
2021/07/07 00:34:59;;;;;;;1.75;1.50;;;17.70;99.90;;;;;;6220227;23;20255;-89
2021/07/07 00:37:26;;;;;;;4.82;2.03;;;17.70;99.90;;;;;;6245985;22;20279;-88
2021/07/07 00:39:54;;;;;;;1.95;1.45;;;17.80;99.90;;;;;;6245686;23;20197;-89
2021/07/07 00:42:22;;;;;;;1.75;1.58;;;17.80;99.90;;;;;;6244416;22;20275;-89
2021/07/07 00:44:49;;;;;;;1.90;1.50;;;17.90;99.90;;;;;;6245706;23;20173;-89
2021/07/07 00:47:16;;;;;;;3.00;1.65;;;18.00;99.90;;;;;;6219228;23;20220;-89
2021/07/07 00:49:43;;;;;;;1.88;1.55;;;18.00;99.90;;;;;;6244931;23;20228;-89
2021/07/07 00:52:12;;;;;;;1.80;1.70;;;18.00;99.90;;;;;;6244278;22;20228;-89
2021/07/07 00:54:40;;;;;;;1.70;1.60;;;18.10;99.90;;;;;;6245808;23;20248;-89
2021/07/07 00:57:10;;;;;;;2.47;1.98;;;18.10;99.90;;;;;;6243889;22;20229;-89
2021/07/07 00:59:38;;;;;;;2.03;1.60;;;18.10;99.90;;;;;;6243523;23;20271;-89
2021/07/07 01:02:07;;;;;;;1.60;1.50;;;18.10;99.90;;;;;;6216035;23;20541;-89
2021/07/07 01:04:34;;;;;;;2.55;1.70;;;18.10;99.90;;;;;;6217787;23;20197;-89
2021/07/07 01:07:01;;;;;;;1.67;1.35;;;18.00;99.90;;;;;;6244156;22;20224;-90
2021/07/07 01:09:28;;;;;;;2.75;1.50;;;18.00;99.90;;;;;;6244695;23;20209;-89
2021/07/07 01:11:55;;;;;;;1.48;1.38;;;18.00;99.90;;;;;;6244466;22;20235;-89
2021/07/07 01:14:24;;;;;;;1.98;1.63;;;18.00;99.90;;;;;;6245277;23;20550;-90
2021/07/07 01:16:51;;;;;;;2.10;1.63;;;18.00;99.90;;;;;;6244620;22;20247;-89
2021/07/07 01:19:18;;;;;;;2.40;1.60;;;18.00;99.90;;;;;;6245531;23;20240;-89
2021/07/07 01:21:48;;;;;;;1.55;1.45;;;17.90;99.90;;;;;;6244361;22;20225;-89
2021/07/07 01:24:16;;;;;;;3.05;1.50;;;17.90;99.90;;;;;;6245844;23;20248;-90
2021/07/07 01:26:44;;;;;;;2.38;1.40;;;17.90;99.90;;;;;;6245296;22;20588;-90
2021/07/07 01:29:12;;;;;;;2.95;1.50;;;17.90;99.90;;;;;;6245676;23;20181;-89
2021/07/07 01:31:40;;;;;;;2.28;1.40;;;17.90;99.90;;;;;;6243812;22;20203;-90
2021/07/07 01:34:07;;;;;;;1.83;1.40;;;17.90;99.90;;;;;;6245649;23;20248;-90
2021/07/07 01:36:35;;;;;;;2.67;1.40;;;17.90;99.90;;;;;;6244500;22;20219;-90
2021/07/07 01:39:06;;;;;;;1.42;1.30;;;17.90;99.90;;;;;;6245804;23;20514;-89
2021/07/07 01:41:33;;;;;;;2.58;1.40;;;17.90;99.90;;;;;;6244971;22;20272;-90
2021/07/07 01:44:01;;;;;;;2.58;1.42;;;18.00;99.90;;;;;;6245759;23;20687;-89
2021/07/07 01:46:28;;;;;;;2.38;1.73;;;17.90;99.90;;;;;;6218937;23;20208;-89
2021/07/07 01:48:55;;;;;;;1.33;1.30;;;17.80;99.90;;;;;;6245946;23;20248;-90
2021/07/07 01:51:22;;;;;;;1.80;1.70;;;17.80;99.90;;;;;;6243093;22;20270;-90
2021/07/07 01:53:50;;;;;;;6.03;1.42;;;17.70;99.90;;;;;;6218570;23;20640;-89
2021/07/07 01:56:18;;;;;;;2.90;1.30;;;17.70;99.90;;;;;;6218511;23;20205;-90
2021/07/07 01:58:46;;;;;;;2.10;1.85;;;17.70;99.90;;;;;;6244883;23;20177;-89
2021/07/07 02:01:13;;;;;;;2.13;1.33;;;17.60;99.90;;;;;;6245065;22;20224;-89
2021/07/07 02:03:41;;;;;;;1.65;1.55;;;17.60;99.90;;;;;;6244564;23;20309;-90
2021/07/07 02:06:08;;;;;;;2.78;1.30;;;17.60;99.90;;;;;;6217355;23;20207;-90
2021/07/07 02:08:35;;;;;;;1.60;1.50;;;17.70;99.90;;;;;;6244038;23;20689;-90
2021/07/07 02:11:03;;;;;;;1.80;1.52;;;17.90;99.90;;;;;;6217633;23;20268;-89
2021/07/07 02:13:31;;;;;;;1.75;1.42;;;18.00;99.90;;;;;;6218392;23;20177;-89
2021/07/07 02:15:58;;;;;;;1.50;1.40;;;18.00;99.90;;;;;;6243346;22;20221;-90
2021/07/07 02:18:26;;;;;;;1.80;1.38;;;18.10;99.90;;;;;;6245124;23;20340;-90
2021/07/07 02:20:53;;;;;;;1.80;1.63;;;18.10;99.90;;;;;;6218416;22;20231;-89
2021/07/07 02:23:20;;;;;;;1.60;1.48;;;18.00;99.90;;;;;;6245111;23;20257;-89
2021/07/07 02:25:47;;;;;;;1.65;1.52;;;17.90;99.90;;;;;;6217694;22;20203;-90
2021/07/07 02:28:17;;;;;;;4.10;1.52;;;17.90;99.90;;;;;;6245100;23;20209;-90
2021/07/07 02:30:46;;;;;;;2.22;1.63;;;18.00;99.90;;;;;;6243512;22;20255;-90
2021/07/07 02:33:14;;;;;;;1.50;1.40;;;18.00;99.90;;;;;;6244418;23;20205;-90
2021/07/07 02:35:43;;;;;;;1.60;1.50;;;17.90;99.90;;;;;;6243902;22;20640;-90
2021/07/07 02:38:13;;;;;;;1.73;1.63;;;18.00;99.90;;;;;;6244739;23;20206;-90
2021/07/07 02:40:41;;;;;;;3.17;1.88;;;18.10;99.90;;;;;;6243401;22;20232;-90
2021/07/07 02:43:09;;;;;;;2.08;1.70;;;18.10;99.90;;;;;;6243947;23;20248;-89
2021/07/07 02:45:37;;;;;;;1.63;1.52;;;18.10;99.90;;;;;;6243207;22;20256;-90
2021/07/07 02:48:10;;;;;;;1.45;1.35;;;18.10;99.90;;;;;;6244918;23;20201;-90
2021/07/07 02:50:38;;;;;;;2.42;1.60;;;18.20;99.90;;;;;;6243328;22;20240;-89
2021/07/07 02:53:06;;;;;;;1.65;1.55;;;18.10;99.90;;;;;;6244138;23;20176;-90
2021/07/07 02:55:34;;;;;;;3.00;1.50;;;18.10;99.90;;;;;;6244501;23;20252;-90
2021/07/07 02:58:02;;;;;;;4.10;1.80;;;18.20;99.90;;;;;;6244233;23;20653;-90
2021/07/07 03:00:32;;;;;;;1.85;1.60;;;18.20;99.90;;;;;;6244038;23;20287;-90
2021/07/07 03:03:02;;;;;;;2.85;1.50;;;18.20;99.90;;;;;;6243483;22;20275;-89
2021/07/07 03:05:31;;;;;;;1.63;1.52;;;18.10;99.90;;;;;;6243140;23;20545;-90
2021/07/07 03:07:58;;;;;;;1.50;1.40;;;18.10;99.90;;;;;;6243484;22;20267;-90
2021/07/07 03:10:26;;;;;;;1.60;1.50;;;18.10;99.90;;;;;;6217676;23;20204;-89
2021/07/07 03:12:53;;;;;;;2.92;1.90;;;18.20;99.90;;;;;;6243387;22;20228;-89
2021/07/07 03:15:21;;;;;;;3.58;1.90;;;18.20;99.90;;;;;;6244511;23;20231;-90
2021/07/07 03:17:48;;;;;;;3.53;1.75;;;18.20;99.90;;;;;;6244087;22;20280;-90
2021/07/07 03:20:15;;;;;;;3.05;1.83;;;18.10;99.90;;;;;;6217405;23;20605;-89
2021/07/07 03:22:44;;;;;;;1.95;1.85;;;18.10;99.90;;;;;;6243910;22;20641;-90
2021/07/07 03:25:12;;;;;;;2.03;1.58;;;18.20;99.90;;;;;;6192889;23;20173;-90
2021/07/07 03:27:39;;;;;;;1.63;1.52;;;18.20;99.90;;;;;;6217379;23;20271;-90
2021/07/07 03:30:08;;;;;;;2.75;1.60;;;18.20;99.90;;;;;;6246143;23;20216;-90
2021/07/07 03:32:35;;;;;;;2.00;1.80;;;18.30;99.90;;;;;;6219154;23;20205;-90
2021/07/07 03:35:04;;;;;;;3.03;1.90;;;18.30;99.90;;;;;;6220117;23;20257;-89
2021/07/07 03:37:31;;;;;;;2.10;1.90;;;18.20;99.90;;;;;;6245702;22;20272;-90
2021/07/07 03:40:00;;;;;;;1.88;1.70;;;18.30;99.90;;;;;;6246147;23;20292;-90
2021/07/07 03:42:27;;;;;;;2.22;1.88;;;18.30;99.90;;;;;;6245759;22;20936;-90
2021/07/07 03:44:54;;;;;;;2.03;1.70;;;18.30;99.90;;;;;;6246086;23;20216;-90
2021/07/07 03:47:21;;;;;;;3.53;1.77;;;18.30;99.90;;;;;;6193163;23;20630;-89
2021/07/07 03:49:49;;;;;;;2.13;1.92;;;18.30;99.90;;;;;;6246101;23;20201;-90
2021/07/07 03:52:17;;;;;;;2.10;1.90;;;18.30;99.90;;;;;;6219222;23;20220;-89
2021/07/07 03:54:44;;;;;;;3.03;2.13;;;18.20;99.90;;;;;;6246814;23;20201;-90
2021/07/07 03:57:29;;;;;;;2.05;1.85;;;18.20;99.90;;;;;;6245414;22;20231;-90
2021/07/07 03:59:57;;;;;;;1.73;1.63;;;18.10;99.90;;;;;;6245836;23;20165;-89
2021/07/07 04:02:24;;;;;;;4.10;1.85;;;18.10;99.90;;;;;;6219031;23;20303;-90
2021/07/07 04:04:51;;;;;;;3.03;1.83;;;18.10;99.90;;;;;;6245922;23;20205;-90
2021/07/07 04:07:18;;;;;;;6.35;1.80;;;18.10;99.90;;;;;;6245179;22;20201;-90
2021/07/07 04:09:46;;;;;;;2.13;1.73;;;18.00;99.90;;;;;;6245910;23;20209;-90
2021/07/07 04:12:16;;;;;;;2.10;1.80;;;18.00;99.90;;;;;;6245298;22;20508;-90
2021/07/07 04:14:45;;;;;;;1.95;1.75;;;18.10;99.90;;;;;;6245408;23;20645;-90
2021/07/07 04:17:12;;;;;;;6.28;3.05;;;18.20;99.90;;;;;;6245336;22;20588;-90
2021/07/07 04:19:39;;;;;;;2.88;1.80;;;18.20;99.90;;;;;;6246033;23;20201;-90
2021/07/07 04:22:06;;;;;;;2.15;1.95;;;18.10;99.90;;;;;;6245719;22;20276;-90
2021/07/07 04:24:33;;;;;;;3.42;1.85;;;18.10;99.90;;;;;;6245283;23;20196;-90
2021/07/07 04:27:01;;;;;;;1.77;1.60;;;18.10;99.90;;;;;;6245200;22;20231;-90
2021/07/07 04:29:28;;;;;;;4.93;1.95;;;18.10;99.90;;;;;;6245973;23;20252;-90
2021/07/07 04:31:57;;;;;;;2.00;1.83;;;18.10;99.90;;;;;;6246415;22;20276;-89
2021/07/07 04:34:25;;;;;;;2.42;2.00;;;18.00;99.90;;;;;;6246248;23;20169;-90
2021/07/07 04:36:52;;;;;;;2.20;2.00;;;18.00;99.90;;;;;;6244792;22;20289;-89
2021/07/07 04:39:19;;;;;;;3.40;1.90;;;17.80;99.90;;;;;;6245272;23;20219;-90
2021/07/07 04:41:47;;;;;;;2.85;1.77;;;17.90;99.90;;;;;;6245309;22;20320;-90
2021/07/07 04:44:14;;;;;;;2.40;1.90;;;17.90;99.90;;;;;;6219183;23;20173;-90
2021/07/07 04:46:41;;;;;;;2.88;1.70;;;17.90;99.90;;;;;;6246394;22;20276;-90
2021/07/07 04:49:10;;;;;;;2.33;1.80;;;18.00;99.90;;;;;;6246583;23;20724;-91
2021/07/07 04:51:37;;;;;;;5.53;2.10;;;18.00;99.90;;;;;;6244930;22;20209;-91
2021/07/07 04:54:04;;;;;;;4.65;2.00;;;17.90;99.90;;;;;;6246381;23;20215;-91
2021/07/07 04:56:38;;;;;;;1.80;1.70;;;17.90;99.90;;;;;;6246883;22;20205;-90
2021/07/07 04:59:05;;;;;;;2.20;1.83;;;17.80;99.90;;;;;;6248481;23;20200;-91
2021/07/07 05:01:32;;;;;;;2.78;2.15;;;17.80;99.90;;;;;;6247780;22;20560;-92
2021/07/07 05:03:59;;;;;;;1.95;1.85;;;17.90;99.90;;;;;;6248254;23;20200;-90
2021/07/07 05:06:28;;;;;;;2.33;2.03;;;18.00;99.90;;;;;;6248305;22;20208;-92
2021/07/07 05:08:56;;;;;;;2.40;2.03;;;18.00;99.90;;;;;;6247695;23;20180;-91
2021/07/07 05:11:23;;;;;;;2.65;2.15;;;18.10;99.90;;;;;;6247675;22;20284;-91
2021/07/07 05:13:50;;;;;;;3.28;1.83;;;18.10;99.90;;;;;;6221558;23;20181;-90
2021/07/07 05:16:17;;;;;;;1.92;1.63;;;18.30;99.90;;;;;;6220823;23;20288;-91
2021/07/07 05:18:46;;;;;;;2.20;2.00;;;18.40;99.90;;;;;;6219853;23;20211;-91
2021/07/07 05:21:13;;;;;;;2.70;1.63;;;18.50;99.90;;;;;;6246194;22;20232;-91
2021/07/07 05:23:42;;;;;;;2.22;1.52;;;18.60;99.90;;;;;;6246651;23;20204;-92
2021/07/07 05:26:09;;;;;;;1.55;1.45;;;18.90;98.80;;;;;;6247359;22;20224;-92
2021/07/07 05:28:36;;;;;;;1.50;1.40;;;19.00;97.80;;;;;;6248752;23;20173;-92
2021/07/07 05:33:44;;;;;;;1.65;1.40;;;18.90;96.80;;;;;;6223956;23;20169;-92
2021/07/07 05:36:11;;;;;;;2.25;1.38;;;19.00;97.10;;;;;;6247448;22;20224;-93
2021/07/07 05:38:39;;;;;;;1.85;1.23;;;19.00;96.80;;;;;;6220024;23;20260;-92
2021/07/07 05:43:52;;;;;;;1.85;1.40;;;18.90;96.60;;;;;;6245195;23;20165;-93
2021/07/07 05:46:20;;;;;;;1.30;1.15;;;18.90;96.40;;;;;;6221271;23;20201;-92
2021/07/07 05:48:46;;;;;;;3.10;1.10;;;18.80;96.70;;;;;;6247581;23;20555;-91
2021/07/07 05:51:13;;;;;;;3.72;1.33;;;18.80;96.80;;;;;;6246346;22;20217;-92
2021/07/07 05:53:41;;;;;;;1.42;1.30;;;18.80;97.20;;;;;;6247842;23;20169;-91
2021/07/07 05:56:17;;;;;;;2.30;1.50;;;18.70;97.50;;;;;;6247396;22;20217;-91
2021/07/07 05:58:46;;;;;;;1.30;1.20;;;18.70;97.60;;;;;;6248285;23;20519;-91
2021/07/07 06:01:13;;;;;;;2.00;1.30;;;18.60;97.80;;;;;;6247026;22;20502;-91
2021/07/07 06:03:40;;;;;;;1.92;1.50;;;18.50;97.70;;;;;;6248011;23;20170;-91
2021/07/07 06:06:08;;;;;;;1.40;1.30;;;18.50;97.80;;;;;;6246257;22;20220;-91
2021/07/07 06:08:57;;;;;;;1.40;1.30;;;18.50;98.30;;;;;;6247589;23;20449;-91
2021/07/07 06:14:08;;;;;;;3.20;1.30;;;18.50;98.60;;;;;;6246798;23;20272;-91
2021/07/07 06:20:25;;;;;;;1.52;1.30;;;18.50;98.40;;;;;;6252385;23;20580;-93
2021/07/07 06:26:19;;;;;;;1.60;1.50;;;18.50;98.80;;;;;;6258423;22;20153;-94
2021/07/07 06:35:36;;;;;;;7.75;2.92;;;18.50;98.90;;;;;;6247486;23;20172;-93
2021/07/07 06:38:04;;;;;;;2.65;1.83;;;18.40;99.10;;;;;;6230233;23;20177;-92
2021/07/07 06:40:31;;;;;;;3.63;1.52;;;18.40;99.00;;;;;;6248919;23;20177;-93
2021/07/07 06:42:58;;;;;;;1.40;1.30;;;18.30;99.20;;;;;;6250646;22;20209;-94
2021/07/07 06:45:38;;;;;;;2.20;1.75;;;18.40;99.40;;;;;;6257799;23;20479;-92
2021/07/07 07:06:21;;;;;;;2.90;1.60;;;18.90;98.20;;;;;;6242426;22;20200;-93
2021/07/07 07:08:51;;;;;;;2.05;1.83;;;19.00;97.90;;;;;;6244589;23;20172;-92
2021/07/07 07:11:18;;;;;;;2.20;1.55;;;19.30;97.50;;;;;;6245251;23;20281;-93
2021/07/07 07:13:46;;;;;;;1.80;1.55;;;19.40;95.90;;;;;;6247887;23;20519;-93
2021/07/07 07:16:21;;;;;;;1.75;1.38;;;19.50;94.90;;;;;;6245973;23;20197;-92
2021/07/07 07:18:50;;;;;;;2.30;1.40;;;19.40;94.70;;;;;;6246256;23;20165;-92
2021/07/07 07:21:17;;;;;;;2.17;1.40;;;19.30;95.30;;;;;;6246082;23;20220;-92
2021/07/07 07:23:44;;;;;;;1.40;1.30;;;19.20;95.20;;;;;;6246808;23;20756;-93
2021/07/07 07:26:14;;;;;;;1.88;1.50;;;19.10;95.70;;;;;;6246640;23;20541;-93
2021/07/07 07:28:42;;;;;;;4.18;1.65;;;19.10;96.30;;;;;;6247963;23;20165;-93
2021/07/07 07:31:09;;;;;;;1.70;1.35;;;19.10;96.50;;;;;;6247474;23;20225;-92
2021/07/07 07:33:37;;;;;;;1.42;1.33;;;19.00;97.10;;;;;;6249595;23;20201;-92
2021/07/07 07:36:26;;;;;;;2.13;1.50;;;19.20;97.10;;;;;;6246847;23;20205;-93
2021/07/07 07:39:19;;;;;;;1.58;1.48;;;19.20;96.70;;;;;;6248332;23;20173;-92
2021/07/07 07:41:46;;;;;;;4.45;1.80;;;19.40;96.20;;;;;;6248315;23;20284;-93
2021/07/07 07:44:13;;;;;;;1.58;1.30;;;19.40;96.60;;;;;;6254540;23;20181;-94
2021/07/07 07:46:41;;;;;;;3.20;1.60;;;19.40;95.80;;;;;;6251746;23;20212;-93
2021/07/07 07:49:10;;;;;;;3.28;1.67;;;19.40;95.30;;;;;;6276278;22;20231;-94
2021/07/07 07:51:56;;;;;;;3.28;1.70;;;19.40;95.50;;;;;;6263304;22;20667;-94
2021/07/07 07:54:43;;;;;;;3.28;1.60;;;19.40;95.90;;;;;;6269575;22;20204;-93
2021/07/07 07:57:13;;;;;;;2.08;1.88;;;19.40;96.00;;;;;;6278009;22;20209;-93
2021/07/07 07:59:40;;;;;;;2.50;1.90;;;19.40;96.00;;;;;;6276474;22;20601;-92
2021/07/07 08:02:07;;;;;;;2.90;1.98;;;19.40;95.40;;;;;;6275551;22;20283;-93
2021/07/07 08:04:33;;;;;;;5.30;1.95;;;19.40;95.60;;;;;;6276219;22;20256;-93
2021/07/07 08:07:02;;;;;;;2.75;1.80;;;19.20;95.80;;;;;;6275699;22;20200;-92
2021/07/07 08:09:29;;;;;;;5.10;2.20;;;19.10;96.40;;;;;;6276165;22;20248;-92
2021/07/07 08:12:02;;;;;;;4.25;2.10;;;19.10;97.10;;;;;;6275961;22;20687;-92
2021/07/07 08:14:37;;;;;;;2.95;1.90;;;19.00;97.10;;;;;;6287224;22;20479;-93
2021/07/07 08:17:27;;;;;;;6.63;2.22;;;19.00;97.50;;;;;;6279901;22;20218;-94
2021/07/07 08:19:58;;;;;;;2.88;1.85;;;19.10;97.40;;;;;;6290510;22;20169;-94
2021/07/07 08:26:11;;;;;;;2.15;1.95;;;18.90;97.80;;;;;;6284927;22;20211;-92
2021/07/07 08:28:38;;;;;;;3.28;1.92;;;19.00;97.80;;;;;;6277660;22;20179;-91
2021/07/07 08:31:08;;;;;;;3.85;2.00;;;19.00;97.80;;;;;;6276654;22;20224;-91
2021/07/07 08:33:35;;;;;;;2.47;2.03;;;19.10;97.70;;;;;;6278451;22;20203;-92
2021/07/07 08:36:02;;;;;;;3.13;1.80;;;19.10;97.70;;;;;;6279438;22;20694;-91
2021/07/07 08:38:32;;;;;;;3.30;2.28;;;19.10;97.40;;;;;;6280072;22;20247;-91
2021/07/07 08:40:59;;;;;;;3.97;2.13;;;19.20;97.70;;;;;;6279875;22;20236;-93
2021/07/07 08:43:26;;;;;;;4.07;1.70;;;19.20;97.90;;;;;;6281171;22;20652;-93
2021/07/07 08:46:02;;;;;;;2.03;1.83;;;19.40;97.90;;;;;;6281192;22;20204;-91
2021/07/07 08:48:29;;;;;;;3.22;1.92;;;19.70;97.00;;;;;;6282532;22;20201;-92
2021/07/07 08:50:59;;;;;;;4.50;2.17;;;20.00;95.20;;;;;;6287177;22;20179;-90
2021/07/07 08:56:27;;;;;;;2.88;2.17;;;20.30;92.30;;;;;;6245586;22;20239;-92
2021/07/07 08:59:01;;;;;;;3.83;2.13;;;20.40;92.70;;;;;;6262972;22;20200;-89
2021/07/07 09:01:28;;;;;;;3.83;2.40;;;20.40;92.70;;;;;;6286624;22;20272;-93
2021/07/07 09:03:56;;;;;;;5.57;2.50;;;20.40;92.70;;;;;;6287062;22;20192;-90
2021/07/07 09:06:30;;;;;;;4.65;2.25;;;20.30;92.70;;;;;;6285685;22;20519;-89
2021/07/07 09:09:01;;;;;;;3.22;2.55;;;20.40;92.70;;;;;;6284867;22;20171;-89
2021/07/07 09:11:29;;;;;;;2.58;1.75;;;20.30;92.70;;;;;;6284123;22;20208;-89
2021/07/07 09:14:16;;;;;;;2.38;2.15;;;20.10;92.30;;;;;;6283606;22;20200;-91
2021/07/07 09:16:47;;;;;;;3.05;2.20;;;20.00;92.60;;;;;;6282481;22;20207;-93
2021/07/07 09:19:17;;;;;;;2.25;2.00;;;19.90;92.60;;;;;;6288380;22;20179;-87
2021/07/07 09:21:50;;;;;;;3.45;2.00;;;20.10;92.70;;;;;;6281087;22;20208;-92
2021/07/07 09:27:04;;;;;;;4.30;2.15;;;20.20;92.00;;;;;;6272039;22;20196;-91
2021/07/07 09:29:38;;;;;;;7.15;2.70;;;20.30;92.20;;;;;;6283974;22;20631;-92
2021/07/07 09:35:23;;;;;;;5.50;2.53;;;20.70;89.50;;;;;;6193810;22;20177;-91
2021/07/07 09:37:54;;;;;;;4.35;2.67;;;20.60;90.20;;;;;;6279901;22;20224;-91
2021/07/07 09:43:05;;;;;;;3.13;2.60;;;20.80;91.00;;;;;;6238511;22;20196;-91
2021/07/07 09:45:32;;;;;;;3.50;3.00;;;21.10;90.80;;;;;;6278160;22;20192;-89
2021/07/07 09:48:02;;;;;;;3.17;2.80;;;21.00;90.70;;;;;;6278655;22;20215;-90
2021/07/07 09:50:29;;;;;;;3.10;2.80;;;20.90;90.30;;;;;;6277857;22;20214;-91
2021/07/07 09:52:56;;;;;;;5.25;2.53;;;20.90;91.10;;;;;;6278788;22;20204;-92
2021/07/07 09:55:35;;;;;;;3.10;2.75;;;20.60;90.60;;;;;;6279846;22;20176;-92
2021/07/07 09:58:02;;;;;;;2.75;2.10;;;20.40;90.50;;;;;;6234204;22;20231;-91
2021/07/07 10:00:37;;;;;;;3.30;2.38;;;20.20;91.40;;;;;;6277747;22;20216;-90
2021/07/07 10:03:05;;;;;;;3.95;2.47;;;20.30;92.10;;;;;;6276762;22;20211;-90
2021/07/07 10:05:38;;;;;;;2.92;2.72;;;20.70;91.70;;;;;;6277094;22;20172;-91
2021/07/07 10:10:50;;;;;;;2.65;2.45;;;21.50;88.20;;;;;;6235868;22;20183;-92
2021/07/07 10:13:16;;;;;;;2.40;2.20;;;21.90;82.60;;;;;;6277690;22;20208;-89
2021/07/07 10:18:25;;;;;;;3.40;3.05;;;22.50;82.50;;;;;;6277988;22;20164;-91
2021/07/07 10:20:53;;;;;;;5.60;2.80;;;22.40;80.10;;;;;;6277254;22;20539;-90
2021/07/07 10:23:21;;;;;;;24.52;22.08;;;22.30;80.00;;;;;;6280690;22;20240;-89
2021/07/07 10:26:00;;;;;;;3.22;2.47;;;22.60;81.50;;;;;;6280674;22;20179;-92
2021/07/07 10:28:28;;;;;;;70.90;63.60;;;22.60;76.10;;;;;;6279305;22;20164;-90
2021/07/07 10:30:57;;;;;;;4.10;3.00;;;22.60;80.00;;;;;;6276703;22;20547;-90
2021/07/07 10:36:19;;;;;;;3.10;1.95;;;23.80;68.70;;;;;;6244364;22;20196;-90
2021/07/07 10:38:50;;;;;;;5.70;2.10;;;24.30;65.30;;;;;;6246817;23;20196;-90
2021/07/07 10:41:54;;;;;;;3.50;2.05;;;24.60;60.10;;;;;;6244990;23;20232;-91
2021/07/07 10:44:56;;;;;;;2.75;2.55;;;24.80;56.90;;;;;;6226971;23;20219;-91
2021/07/07 10:50:34;;;;;;;2.33;2.03;;;25.10;53.40;;;;;;6272559;22;20238;-91
2021/07/07 10:53:01;;;;;;;2.95;1.90;;;25.10;53.40;;;;;;6270690;22;20211;-91
2021/07/07 10:59:36;;;;;;;48.45;43.78;;;25.30;52.00;;;;;;6216055;23;20192;-91
2021/07/07 11:02:07;;;;;;;3.15;2.42;;;25.90;47.90;;;;;;6213813;23;20276;-89
2021/07/07 11:04:37;;;;;;;2.83;1.85;;;25.50;49.10;;;;;;6273963;22;20251;-89
2021/07/07 11:07:26;;;;;;;1.92;1.70;;;25.50;46.70;;;;;;6274935;22;21004;-88
2021/07/07 11:09:53;;;;;;;2.45;1.80;;;25.20;46.80;;;;;;6277465;22;20187;-89
2021/07/07 11:12:25;;;;;;;3.15;2.88;;;25.10;45.30;;;;;;6274486;22;20207;-90
2021/07/07 11:15:16;;;;;;;1.88;1.70;;;25.00;49.60;;;;;;6275342;22;20196;-89
2021/07/07 11:17:46;;;;;;;1.83;1.73;;;25.10;48.40;;;;;;6274296;22;20223;-89
2021/07/07 11:20:16;;;;;;;4.35;1.70;;;24.70;45.40;;;;;;6275782;22;20239;-89
2021/07/07 11:22:46;;;;;;;1.90;1.80;;;24.70;48.10;;;;;;6274766;22;20315;-88
2021/07/07 11:25:14;;;;;;;4.15;1.45;;;24.80;50.10;;;;;;6275852;22;20204;-89
2021/07/07 11:27:42;;;;;;;1.95;1.70;;;24.70;53.00;;;;;;6277131;22;20247;-91
2021/07/07 11:30:13;;;;;;;3.67;1.80;;;24.10;52.30;;;;;;6277332;22;20176;-91
2021/07/07 11:32:42;;;;;;;2.80;1.65;;;24.20;57.70;;;;;;6275693;22;20231;-92
2021/07/07 11:35:11;;;;;;;1.48;1.38;;;23.60;53.20;;;;;;6277649;22;20260;-93
2021/07/07 11:37:39;;;;;;;3.67;2.03;;;23.30;58.90;;;;;;6273677;22;20222;-92
2021/07/07 11:40:09;;;;;;;5.90;2.65;;;23.10;58.80;;;;;;6273754;22;20259;-93
2021/07/07 11:42:50;;;;;;;11.57;3.67;;;22.90;58.80;;;;;;6274047;22;20933;-92
2021/07/07 11:48:07;;;;;;;4.32;1.70;;;22.80;58.40;;;;;;6272824;22;20531;-92
2021/07/07 11:50:34;;;;;;;2.22;1.80;;;22.70;60.10;;;;;;6276403;22;20228;-93
2021/07/07 11:53:05;;;;;;;1.95;1.58;;;22.50;61.20;;;;;;6276558;22;20203;-93
2021/07/07 11:56:00;;;;;;;1.98;1.77;;;22.50;63.20;;;;;;6277696;22;20690;-93
2021/07/07 11:58:30;;;;;;;1.70;1.60;;;22.60;65.70;;;;;;6277822;22;20187;-93
2021/07/07 12:01:02;;;;;;;2.35;2.10;;;22.50;69.50;;;;;;6250208;22;20179;-93
2021/07/07 12:03:29;;;;;;;1.92;1.67;;;22.30;67.90;;;;;;6276632;22;20200;-92
2021/07/07 12:06:01;;;;;;;3.65;1.88;;;22.20;63.90;;;;;;6275935;22;20247;-92
2021/07/07 12:08:30;;;;;;;2.05;1.88;;;22.30;64.60;;;;;;6276635;22;20218;-93
2021/07/07 12:11:09;;;;;;;3.50;1.70;;;22.50;63.80;;;;;;6276790;22;20223;-92
2021/07/07 12:13:38;;;;;;;3.53;1.70;;;23.00;58.60;;;;;;6277277;22;20188;-91
2021/07/07 12:16:32;;;;;;;1.60;1.50;;;23.30;58.90;;;;;;6275867;22;20207;-91
2021/07/07 12:19:02;;;;;;;1.90;1.30;;;23.50;55.30;;;;;;6276304;22;20157;-92
2021/07/07 12:21:32;;;;;;;1.60;1.50;;;23.70;57.50;;;;;;6275415;22;20283;-92
2021/07/07 12:24:01;;;;;;;2.30;1.48;;;23.30;57.10;;;;;;6278658;22;20184;-92
2021/07/07 12:26:30;;;;;;;3.17;1.60;;;23.30;59.20;;;;;;6277617;22;20204;-92
2021/07/07 12:29:00;;;;;;;1.63;1.40;;;22.90;58.50;;;;;;6278257;22;20207;-92
2021/07/07 12:31:32;;;;;;;5.32;1.58;;;22.60;62.90;;;;;;6276700;22;20207;-93
2021/07/07 12:34:29;;;;;;;1.83;1.50;;;22.40;62.60;;;;;;6277236;22;20180;-92
2021/07/07 12:37:17;;;;;;;2.28;2.08;;;22.00;67.00;;;;;;6276657;22;20656;-92
2021/07/07 12:39:50;;;;;;;5.03;1.50;;;21.70;67.20;;;;;;6278062;22;20169;-92
2021/07/07 12:42:24;;;;;;;1.83;1.38;;;21.50;70.00;;;;;;6277875;22;20200;-92
2021/07/07 12:44:51;;;;;;;2.35;1.70;;;21.30;66.90;;;;;;6277386;22;20600;-92
2021/07/07 12:47:23;;;;;;;1.50;1.40;;;21.20;73.20;;;;;;6276834;22;20573;-91
2021/07/07 12:49:52;;;;;;;1.50;1.40;;;21.00;72.70;;;;;;6277712;22;20168;-92
2021/07/07 12:52:22;;;;;;;1.85;1.45;;;21.00;75.30;;;;;;6277626;22;20531;-92
2021/07/07 12:57:51;;;;;;;1.65;1.48;;;20.70;76.40;;;;;;6276850;22;20169;-92
2021/07/07 13:06:00;;;;;;;1.70;1.60;;;20.70;81.30;;;;;;6249922;22;20169;-92
2021/07/07 13:08:35;;;;;;;1.70;1.60;;;20.70;81.30;;;;;;6259793;22;20179;-92
2021/07/07 13:13:44;;;;;;;1.73;1.50;;;20.60;81.20;;;;;;6264591;22;20463;-92
2021/07/07 13:22:08;;;;;;;1.58;1.48;;;20.70;85.10;;;;;;6186031;22;20204;-92
2021/07/07 13:24:36;;;;;;;2.13;1.50;;;20.50;81.20;;;;;;6268296;22;20200;-92
2021/07/07 13:27:24;;;;;;;2.00;1.80;;;20.60;81.20;;;;;;6280908;22;20224;-92
2021/07/07 13:56:13;;;;;;;5.10;1.58;;;20.50;87.50;;;;;;6293277;22;20230;-92
2021/07/07 13:58:44;;;;;;;1.60;1.50;;;20.60;85.50;;;;;;6262842;22;20180;-92
2021/07/07 14:01:12;;;;;;;1.83;1.67;;;20.60;82.50;;;;;;6263740;22;20220;-92
2021/07/07 14:03:39;;;;;;;2.08;1.60;;;20.60;81.30;;;;;;6265469;22;20220;-92
2021/07/07 14:06:06;;;;;;;3.25;1.60;;;20.80;82.90;;;;;;6279093;22;20216;-92
2021/07/07 14:08:34;;;;;;;1.77;1.50;;;21.00;81.50;;;;;;6280062;22;20200;-92
2021/07/07 14:11:02;;;;;;;1.60;1.42;;;21.00;82.80;;;;;;6277336;22;20196;-92
2021/07/07 14:13:28;;;;;;;2.20;1.60;;;21.00;81.60;;;;;;6276940;22;20492;-92
2021/07/07 14:15:59;;;;;;;2.50;1.88;;;21.10;81.60;;;;;;6276491;22;20624;-92
2021/07/07 14:18:26;;;;;;;1.50;1.40;;;21.20;81.70;;;;;;6276497;22;20207;-92
2021/07/07 14:23:40;;;;;;;1.90;1.70;;;21.20;78.60;;;;;;6275303;22;20196;-93
2021/07/07 14:26:23;;;;;;;5.47;1.55;;;21.00;81.50;;;;;;6257704;22;20264;-92
2021/07/07 14:28:51;;;;;;;2.13;1.42;;;21.00;81.50;;;;;;6277200;22;20551;-92
2021/07/07 14:36:41;;;;;;;2.75;1.40;;;20.80;81.40;;;;;;6258297;22;20502;-92
2021/07/07 14:39:14;;;;;;;2.17;1.38;;;20.80;82.20;;;;;;6278707;22;20173;-93
2021/07/07 14:41:50;;;;;;;1.60;1.50;;;20.80;81.40;;;;;;6280776;22;20227;-90
2021/07/07 14:44:19;;;;;;;1.60;1.40;;;20.80;81.40;;;;;;6287666;22;20200;-90
2021/07/07 14:47:11;;;;;;;4.07;1.48;;;20.60;78.50;;;;;;6285192;22;20252;-93
2021/07/07 14:49:38;;;;;;;3.97;1.52;;;20.60;81.20;;;;;;6231010;23;20209;-93
2021/07/07 14:52:05;;;;;;;2.08;1.20;;;20.60;81.20;;;;;;6255615;23;20251;-91
2021/07/07 14:54:34;;;;;;;5.80;1.45;;;20.60;81.20;;;;;;6256050;23;20184;-92
2021/07/07 14:57:02;;;;;;;2.80;1.35;;;20.60;81.20;;;;;;6251810;23;20205;-92
2021/07/07 15:02:30;;;;;;;1.30;1.20;;;20.60;75.90;;;;;;6210040;23;20253;-92
2021/07/07 15:04:57;;;;;;;1.60;1.05;;;20.50;76.60;;;;;;6198457;23;20225;-89
2021/07/07 15:07:25;;;;;;;2.40;1.40;;;20.70;78.30;;;;;;6246986;23;20533;-91